sensor_id;sensor_type;location;lat;lon;timestamp;temperature;humidity
2565;DHT22;1292;48.020;7.822;2023-04-03T05:45:47;6.20;99.90
2565;DHT22;1292;48.020;7.822;2023-04-03T05:48:14;6.10;99.90
2565;DHT22;1292;48.020;7.822;2023-04-03T05:50:41;6.10;99.90
2565;DHT22;1292;48.020;7.822;2023-04-03T05:53:14;6.10;99.90
2565;DHT22;1292;48.020;7.822;2023-04-03T05:55:41;6.00;99.90
2565;DHT22;1292;48.020;7.822;2023-04-03T05:58:08;6.10;99.90
2565;DHT22;1292;48.020;7.822;2023-04-03T06:00:35;6.10;99.90
2565;DHT22;1292;48.020;7.822;2023-04-03T06:03:03;6.20;99.90
2565;DHT22;1292;48.020;7.822;2023-04-03T06:05:30;6.20;99.90
2565;DHT22;1292;48.020;7.822;2023-04-03T06:07:57;6.20;99.90
2565;DHT22;1292;48.020;7.822;2023-04-03T06:10:24;6.20;99.90
2565;DHT22;1292;48.020;7.822;2023-04-03T06:12:51;6.30;99.90
2565;DHT22;1292;48.020;7.822;2023-04-03T06:15:17;6.20;99.90
2565;DHT22;1292;48.020;7.822;2023-04-03T06:17:44;6.30;99.90
2565;DHT22;1292;48.020;7.822;2023-04-03T06:20:13;6.30;99.90
2565;DHT22;1292;48.020;7.822;2023-04-03T06:22:40;6.20;99.90
2565;DHT22;1292;48.020;7.822;2023-04-03T06:25:07;6.30;99.90
2565;DHT22;1292;48.020;7.822;2023-04-03T06:27:34;6.30;99.90
2565;DHT22;1292;48.020;7.822;2023-04-03T06:30:01;6.40;99.90
2565;DHT22;1292;48.020;7.822;2023-04-03T06:32:28;6.40;99.90
2565;DHT22;1292;48.020;7.822;2023-04-03T06:34:55;6.40;99.90
2565;DHT22;1292;48.020;7.822;2023-04-03T06:37:24;6.40;99.90
2565;DHT22;1292;48.020;7.822;2023-04-03T06:39:54;6.50;99.90
2565;DHT22;1292;48.020;7.822;2023-04-03T06:42:21;6.50;99.90
2565;DHT22;1292;48.020;7.822;2023-04-03T06:44:47;6.60;99.90
2565;DHT22;1292;48.020;7.822;2023-04-03T06:47:15;6.60;99.90
2565;DHT22;1292;48.020;7.822;2023-04-03T06:49:42;6.60;99.90
2565;DHT22;1292;48.020;7.822;2023-04-03T06:52:09;6.60;99.90
2565;DHT22;1292;48.020;7.822;2023-04-03T06:54:39;6.70;99.90
2565;DHT22;1292;48.020;7.822;2023-04-03T06:57:06;6.70;99.90
2565;DHT22;1292;48.020;7.822;2023-04-03T06:59:33;6.70;99.90
2565;DHT22;1292;48.020;7.822;2023-04-03T07:02:00;6.80;99.90
2565;DHT22;1292;48.020;7.822;2023-04-03T07:04:27;6.90;99.90
2565;DHT22;1292;48.020;7.822;2023-04-03T07:06:54;6.90;99.90
2565;DHT22;1292;48.020;7.822;2023-04-03T07:09:21;6.90;99.90
2565;DHT22;1292;48.020;7.822;2023-04-03T07:11:49;7.00;99.90
2565;DHT22;1292;48.020;7.822;2023-04-03T07:14:16;7.00;99.90
2565;DHT22;1292;48.020;7.822;2023-04-03T07:16:42;7.20;99.90
2565;DHT22;1292;48.020;7.822;2023-04-03T07:19:10;7.30;99.90
2565;DHT22;1292;48.020;7.822;2023-04-03T07:21:37;7.30;99.90
2565;DHT22;1292;48.020;7.822;2023-04-03T07:24:04;7.40;99.90
2565;DHT22;1292;48.020;7.822;2023-04-03T07:26:31;7.50;99.90
2565;DHT22;1292;48.020;7.822;2023-04-03T07:28:59;7.60;99.90
2565;DHT22;1292;48.020;7.822;2023-04-03T07:31:26;7.50;99.90
2565;DHT22;1292;48.020;7.822;2023-04-03T07:33:53;7.50;99.90
2565;DHT22;1292;48.020;7.822;2023-04-03T07:36:21;7.50;99.90
2565;DHT22;1292;48.020;7.822;2023-04-03T07:38:48;7.60;99.90
2565;DHT22;1292;48.020;7.822;2023-04-03T07:41:17;7.70;99.90
2565;DHT22;1292;48.020;7.822;2023-04-03T07:43:45;7.70;99.90
2565;DHT22;1292;48.020;7.822;2023-04-03T07:46:16;7.70;99.90
2565;DHT22;1292;48.020;7.822;2023-04-03T07:48:44;7.70;99.90
2565;DHT22;1292;48.020;7.822;2023-04-03T07:51:11;7.70;99.90
2565;DHT22;1292;48.020;7.822;2023-04-03T07:53:38;7.70;99.90
2565;DHT22;1292;48.020;7.822;2023-04-03T07:56:05;7.60;99.90
2565;DHT22;1292;48.020;7.822;2023-04-03T07:58:32;7.70;99.90
2565;DHT22;1292;48.020;7.822;2023-04-03T08:00:59;7.80;99.90
2565;DHT22;1292;48.020;7.822;2023-04-03T08:03:27;7.90;99.90
2565;DHT22;1292;48.020;7.822;2023-04-03T08:05:54;7.90;99.90
2565;DHT22;1292;48.020;7.822;2023-04-03T08:08:22;8.00;99.90
2565;DHT22;1292;48.020;7.822;2023-04-03T08:10:50;8.10;99.90
2565;DHT22;1292;48.020;7.822;2023-04-03T08:13:17;8.20;99.90
2565;DHT22;1292;48.020;7.822;2023-04-03T08:15:44;8.10;99.90
2565;DHT22;1292;48.020;7.822;2023-04-03T08:18:11;8.10;99.90
2565;DHT22;1292;48.020;7.822;2023-04-03T08:20:39;8.10;99.90
2565;DHT22;1292;48.020;7.822;2023-04-03T08:23:07;8.10;99.90
2565;DHT22;1292;48.020;7.822;2023-04-03T08:25:34;8.20;99.90
2565;DHT22;1292;48.020;7.822;2023-04-03T08:28:01;8.20;99.90
2565;DHT22;1292;48.020;7.822;2023-04-03T08:30:28;8.30;99.90
2565;DHT22;1292;48.020;7.822;2023-04-03T08:32:55;8.40;99.90
2565;DHT22;1292;48.020;7.822;2023-04-03T08:35:22;8.50;99.90
2565;DHT22;1292;48.020;7.822;2023-04-03T08:37:50;8.50;99.90
2565;DHT22;1292;48.020;7.822;2023-04-03T08:40:17;8.40;99.90
2565;DHT22;1292;48.020;7.822;2023-04-03T08:42:54;8.30;99.90
2565;DHT22;1292;48.020;7.822;2023-04-03T08:45:30;8.40;99.90
2565;DHT22;1292;48.020;7.822;2023-04-03T08:48:05;8.40;99.90
2565;DHT22;1292;48.020;7.822;2023-04-03T08:50:37;8.50;99.90
2565;DHT22;1292;48.020;7.822;2023-04-03T08:53:14;8.50;99.90
2565;DHT22;1292;48.020;7.822;2023-04-03T08:55:43;8.50;99.90
2565;DHT22;1292;48.020;7.822;2023-04-03T08:58:13;8.40;99.90
2565;DHT22;1292;48.020;7.822;2023-04-03T09:00:45;8.40;99.90
2565;DHT22;1292;48.020;7.822;2023-04-03T09:03:13;8.30;99.90
2565;DHT22;1292;48.020;7.822;2023-04-03T09:05:43;8.20;99.90
2565;DHT22;1292;48.020;7.822;2023-04-03T09:08:22;8.10;99.90
2565;DHT22;1292;48.020;7.822;2023-04-03T09:10:56;8.20;99.90
2565;DHT22;1292;48.020;7.822;2023-04-03T09:13:28;8.20;99.90
2565;DHT22;1292;48.020;7.822;2023-04-03T09:15:57;8.30;99.90
2565;DHT22;1292;48.020;7.822;2023-04-03T09:18:28;8.30;99.90
2565;DHT22;1292;48.020;7.822;2023-04-03T09:21:03;8.30;99.90
2565;DHT22;1292;48.020;7.822;2023-04-03T09:23:42;8.30;99.90
2565;DHT22;1292;48.020;7.822;2023-04-03T09:26:13;8.20;99.90
2565;DHT22;1292;48.020;7.822;2023-04-03T09:28:41;8.20;99.90
2565;DHT22;1292;48.020;7.822;2023-04-03T09:31:18;8.20;99.90
2565;DHT22;1292;48.020;7.822;2023-04-03T09:33:46;8.30;99.90
2565;DHT22;1292;48.020;7.822;2023-04-03T09:36:13;8.30;99.90
2565;DHT22;1292;48.020;7.822;2023-04-03T09:38:41;8.30;99.90
2565;DHT22;1292;48.020;7.822;2023-04-03T09:41:15;8.30;99.90
2565;DHT22;1292;48.020;7.822;2023-04-03T09:43:52;8.20;99.90
2565;DHT22;1292;48.020;7.822;2023-04-03T09:46:26;8.10;99.90
2565;DHT22;1292;48.020;7.822;2023-04-03T09:48:56;8.20;99.90
2565;DHT22;1292;48.020;7.822;2023-04-03T09:51:25;8.10;99.90
2565;DHT22;1292;48.020;7.822;2023-04-03T09:53:55;8.10;99.90
2565;DHT22;1292;48.020;7.822;2023-04-03T09:56:25;8.00;99.90
2565;DHT22;1292;48.020;7.822;2023-04-03T09:59:07;8.10;99.90
2565;DHT22;1292;48.020;7.822;2023-04-03T10:01:36;8.10;99.90
2565;DHT22;1292;48.020;7.822;2023-04-03T10:04:06;8.10;99.90
2565;DHT22;1292;48.020;7.822;2023-04-03T10:06:36;8.10;99.90
2565;DHT22;1292;48.020;7.822;2023-04-03T10:09:17;8.10;99.90
2565;DHT22;1292;48.020;7.822;2023-04-03T10:11:59;8.20;99.90
2565;DHT22;1292;48.020;7.822;2023-04-03T10:14:27;8.20;99.90
2565;DHT22;1292;48.020;7.822;2023-04-03T10:16:59;8.30;99.90
2565;DHT22;1292;48.020;7.822;2023-04-03T10:19:39;8.40;99.90
2565;DHT22;1292;48.020;7.822;2023-04-03T10:22:16;8.40;99.90
2565;DHT22;1292;48.020;7.822;2023-04-03T10:24:52;8.40;99.90
2565;DHT22;1292;48.020;7.822;2023-04-03T10:27:29;8.50;99.90
2565;DHT22;1292;48.020;7.822;2023-04-03T10:30:03;8.40;99.90
2565;DHT22;1292;48.020;7.822;2023-04-03T10:32:45;8.50;99.90
2565;DHT22;1292;48.020;7.822;2023-04-03T10:35:19;8.60;99.90
2565;DHT22;1292;48.020;7.822;2023-04-03T10:38:00;8.60;99.90
2565;DHT22;1292;48.020;7.822;2023-04-03T10:40:34;8.70;99.90
2565;DHT22;1292;48.020;7.822;2023-04-03T10:43:09;8.70;99.90
2565;DHT22;1292;48.020;7.822;2023-04-03T10:45:53;8.70;99.90
2565;DHT22;1292;48.020;7.822;2023-04-03T10:48:30;8.70;99.90
2565;DHT22;1292;48.020;7.822;2023-04-03T10:51:10;8.70;99.90
2565;DHT22;1292;48.020;7.822;2023-04-03T10:53:43;8.90;99.90
2565;DHT22;1292;48.020;7.822;2023-04-03T10:56:17;9.00;99.90
2565;DHT22;1292;48.020;7.822;2023-04-03T10:58:49;9.10;99.90
2565;DHT22;1292;48.020;7.822;2023-04-03T11:01:20;9.20;99.90
2565;DHT22;1292;48.020;7.822;2023-04-03T11:03:49;9.30;99.90
2565;DHT22;1292;48.020;7.822;2023-04-03T11:06:20;9.30;99.90
2565;DHT22;1292;48.020;7.822;2023-04-03T11:08:51;9.30;99.90
2565;DHT22;1292;48.020;7.822;2023-04-03T11:11:26;9.20;99.90
2565;DHT22;1292;48.020;7.822;2023-04-03T11:14:01;9.20;99.90
2565;DHT22;1292;48.020;7.822;2023-04-03T11:16:32;9.20;99.90
2565;DHT22;1292;48.020;7.822;2023-04-03T11:19:03;9.10;99.90
2565;DHT22;1292;48.020;7.822;2023-04-03T11:21:34;9.10;99.90
2565;DHT22;1292;48.020;7.822;2023-04-03T11:24:05;9.00;99.90
2565;DHT22;1292;48.020;7.822;2023-04-03T11:26:40;9.10;99.90
2565;DHT22;1292;48.020;7.822;2023-04-03T11:29:12;9.10;99.90
2565;DHT22;1292;48.020;7.822;2023-04-03T11:31:51;9.10;99.90
2565;DHT22;1292;48.020;7.822;2023-04-03T11:34:31;9.10;99.90
2565;DHT22;1292;48.020;7.822;2023-04-03T11:37:05;9.10;99.90
2565;DHT22;1292;48.020;7.822;2023-04-03T11:39:35;9.20;99.90
2565;DHT22;1292;48.020;7.822;2023-04-03T11:42:15;9.30;99.90
2565;DHT22;1292;48.020;7.822;2023-04-03T11:44:43;9.10;99.90
2565;DHT22;1292;48.020;7.822;2023-04-03T11:47:11;9.10;99.90
2565;DHT22;1292;48.020;7.822;2023-04-03T11:49:59;9.10;99.90
2565;DHT22;1292;48.020;7.822;2023-04-03T11:55:55;9.10;99.90
2565;DHT22;1292;48.020;7.822;2023-04-03T11:58:25;9.10;99.90
2565;DHT22;1292;48.020;7.822;2023-04-03T12:01:10;9.20;99.90
2565;DHT22;1292;48.020;7.822;2023-04-03T12:10:16;9.40;99.90
2565;DHT22;1292;48.020;7.822;2023-04-03T12:12:56;9.40;99.90
2565;DHT22;1292;48.020;7.822;2023-04-03T12:15:50;9.30;99.90
2565;DHT22;1292;48.020;7.822;2023-04-03T12:21:18;9.20;99.90
2565;DHT22;1292;48.020;7.822;2023-04-03T12:24:02;9.30;99.90
2565;DHT22;1292;48.020;7.822;2023-04-03T12:26:38;9.30;99.90
2565;DHT22;1292;48.020;7.822;2023-04-03T12:29:14;9.50;99.90
2565;DHT22;1292;48.020;7.822;2023-04-03T12:31:50;9.50;99.90
2565;DHT22;1292;48.020;7.822;2023-04-03T12:34:35;9.50;99.90
2565;DHT22;1292;48.020;7.822;2023-04-03T12:37:15;9.60;99.90
2565;DHT22;1292;48.020;7.822;2023-04-03T12:39:58;9.50;99.90
2565;DHT22;1292;48.020;7.822;2023-04-03T12:43:07;9.30;99.90
2565;DHT22;1292;48.020;7.822;2023-04-03T12:45:42;9.40;99.90
2565;DHT22;1292;48.020;7.822;2023-04-03T12:48:15;9.30;99.90
2565;DHT22;1292;48.020;7.822;2023-04-03T12:50:43;9.20;99.90
2565;DHT22;1292;48.020;7.822;2023-04-03T12:53:14;9.10;99.90
2565;DHT22;1292;48.020;7.822;2023-04-03T12:55:43;9.00;99.90
2565;DHT22;1292;48.020;7.822;2023-04-03T12:58:14;9.00;99.90
2565;DHT22;1292;48.020;7.822;2023-04-03T13:00:42;9.00;99.90
2565;DHT22;1292;48.020;7.822;2023-04-03T13:03:22;8.90;99.90
2565;DHT22;1292;48.020;7.822;2023-04-03T13:05:52;9.00;99.90
2565;DHT22;1292;48.020;7.822;2023-04-03T13:08:20;9.10;99.90
2565;DHT22;1292;48.020;7.822;2023-04-03T13:10:52;9.10;99.90
2565;DHT22;1292;48.020;7.822;2023-04-03T13:13:21;9.20;99.90
2565;DHT22;1292;48.020;7.822;2023-04-03T13:15:48;9.10;99.90
2565;DHT22;1292;48.020;7.822;2023-04-03T13:18:26;9.10;99.90
2565;DHT22;1292;48.020;7.822;2023-04-03T13:20:56;9.00;99.90
2565;DHT22;1292;48.020;7.822;2023-04-03T13:23:24;9.00;99.90
2565;DHT22;1292;48.020;7.822;2023-04-03T13:25:51;9.00;99.90
2565;DHT22;1292;48.020;7.822;2023-04-03T13:28:22;9.00;99.90
2565;DHT22;1292;48.020;7.822;2023-04-03T13:31:00;9.10;99.90
2565;DHT22;1292;48.020;7.822;2023-04-03T13:33:32;9.00;99.90
2565;DHT22;1292;48.020;7.822;2023-04-03T13:36:03;9.10;99.90
2565;DHT22;1292;48.020;7.822;2023-04-03T13:38:33;9.10;99.90
2565;DHT22;1292;48.020;7.822;2023-04-03T13:41:05;9.20;99.90
2565;DHT22;1292;48.020;7.822;2023-04-03T13:43:35;9.10;99.90
2565;DHT22;1292;48.020;7.822;2023-04-03T13:46:06;9.00;99.90
2565;DHT22;1292;48.020;7.822;2023-04-03T13:48:50;9.00;99.90
2565;DHT22;1292;48.020;7.822;2023-04-03T13:51:20;8.90;99.90
2565;DHT22;1292;48.020;7.822;2023-04-03T13:53:51;8.80;99.90
2565;DHT22;1292;48.020;7.822;2023-04-03T13:56:29;8.80;99.90
2565;DHT22;1292;48.020;7.822;2023-04-03T13:59:01;8.90;99.90
2565;DHT22;1292;48.020;7.822;2023-04-03T14:01:37;8.90;99.90
2565;DHT22;1292;48.020;7.822;2023-04-03T14:04:14;8.90;99.90
2565;DHT22;1292;48.020;7.822;2023-04-03T14:06:43;8.80;99.90
2565;DHT22;1292;48.020;7.822;2023-04-03T14:09:10;8.90;99.90
2565;DHT22;1292;48.020;7.822;2023-04-03T14:11:37;8.90;99.90
2565;DHT22;1292;48.020;7.822;2023-04-03T14:14:11;9.00;99.90
2565;DHT22;1292;48.020;7.822;2023-04-03T14:16:41;8.90;99.90
2565;DHT22;1292;48.020;7.822;2023-04-03T14:19:18;8.80;99.90
2565;DHT22;1292;48.020;7.822;2023-04-03T14:21:45;8.80;99.90
2565;DHT22;1292;48.020;7.822;2023-04-03T14:24:12;8.70;99.90
2565;DHT22;1292;48.020;7.822;2023-04-03T14:26:39;8.70;99.90
2565;DHT22;1292;48.020;7.822;2023-04-03T14:29:06;8.80;99.90
2565;DHT22;1292;48.020;7.822;2023-04-03T14:31:33;8.90;99.90
2565;DHT22;1292;48.020;7.822;2023-04-03T14:34:00;8.90;99.90
2565;DHT22;1292;48.020;7.822;2023-04-03T14:36:30;8.90;99.90
2565;DHT22;1292;48.020;7.822;2023-04-03T14:38:59;8.80;99.90
2565;DHT22;1292;48.020;7.822;2023-04-03T14:41:26;8.70;99.90
2565;DHT22;1292;48.020;7.822;2023-04-03T14:43:53;8.70;99.90
2565;DHT22;1292;48.020;7.822;2023-04-03T14:46:24;8.70;99.90
2565;DHT22;1292;48.020;7.822;2023-04-03T14:48:52;8.70;99.90
2565;DHT22;1292;48.020;7.822;2023-04-03T14:51:19;8.80;99.90
2565;DHT22;1292;48.020;7.822;2023-04-03T14:53:47;8.80;99.90
2565;DHT22;1292;48.020;7.822;2023-04-03T14:56:17;8.70;99.90
2565;DHT22;1292;48.020;7.822;2023-04-03T14:58:44;8.70;99.90
2565;DHT22;1292;48.020;7.822;2023-04-03T15:01:14;8.70;99.90
2565;DHT22;1292;48.020;7.822;2023-04-03T15:03:41;8.70;99.90
2565;DHT22;1292;48.020;7.822;2023-04-03T15:06:09;8.70;99.90
2565;DHT22;1292;48.020;7.822;2023-04-03T15:08:37;8.80;99.90
2565;DHT22;1292;48.020;7.822;2023-04-03T15:11:08;8.80;99.90
2565;DHT22;1292;48.020;7.822;2023-04-03T15:13:35;8.80;99.90
2565;DHT22;1292;48.020;7.822;2023-04-03T15:16:02;8.70;99.90
2565;DHT22;1292;48.020;7.822;2023-04-03T15:18:33;8.70;99.90
2565;DHT22;1292;48.020;7.822;2023-04-03T15:21:02;8.70;99.90
2565;DHT22;1292;48.020;7.822;2023-04-03T15:23:29;8.70;99.90
2565;DHT22;1292;48.020;7.822;2023-04-03T15:25:56;8.70;99.90
2565;DHT22;1292;48.020;7.822;2023-04-03T15:28:27;8.70;99.90
2565;DHT22;1292;48.020;7.822;2023-04-03T15:30:55;8.60;99.90
2565;DHT22;1292;48.020;7.822;2023-04-03T15:33:22;8.60;99.90
2565;DHT22;1292;48.020;7.822;2023-04-03T15:35:49;8.50;99.90
2565;DHT22;1292;48.020;7.822;2023-04-03T15:38:16;8.50;99.90
2565;DHT22;1292;48.020;7.822;2023-04-03T15:40:42;8.50;99.90
2565;DHT22;1292;48.020;7.822;2023-04-03T15:43:10;8.50;99.90
2565;DHT22;1292;48.020;7.822;2023-04-03T15:45:38;8.50;99.90
2565;DHT22;1292;48.020;7.822;2023-04-03T15:48:05;8.60;99.90
2565;DHT22;1292;48.020;7.822;2023-04-03T15:50:33;8.60;99.90
2565;DHT22;1292;48.020;7.822;2023-04-03T15:53:00;8.60;99.90
2565;DHT22;1292;48.020;7.822;2023-04-03T15:55:29;8.60;99.90
2565;DHT22;1292;48.020;7.822;2023-04-03T15:57:56;8.70;99.90
2565;DHT22;1292;48.020;7.822;2023-04-03T16:00:24;8.60;99.90
2565;DHT22;1292;48.020;7.822;2023-04-03T16:02:54;8.50;99.90
2565;DHT22;1292;48.020;7.822;2023-04-03T16:05:23;8.40;99.90
2565;DHT22;1292;48.020;7.822;2023-04-03T16:07:51;8.50;99.90
2565;DHT22;1292;48.020;7.822;2023-04-03T16:10:19;8.50;99.90
2565;DHT22;1292;48.020;7.822;2023-04-03T16:12:46;8.40;99.90
2565;DHT22;1292;48.020;7.822;2023-04-03T16:15:13;8.40;99.90
2565;DHT22;1292;48.020;7.822;2023-04-03T16:17:40;8.30;99.90
2565;DHT22;1292;48.020;7.822;2023-04-03T16:20:10;8.30;99.90
2565;DHT22;1292;48.020;7.822;2023-04-03T16:22:38;8.30;99.90
2565;DHT22;1292;48.020;7.822;2023-04-03T16:25:07;8.20;99.90
2565;DHT22;1292;48.020;7.822;2023-04-03T16:27:34;8.20;99.90
2565;DHT22;1292;48.020;7.822;2023-04-03T16:30:01;8.20;99.90
2565;DHT22;1292;48.020;7.822;2023-04-03T16:32:30;8.20;99.90
2565;DHT22;1292;48.020;7.822;2023-04-03T16:34:57;8.20;99.90
2565;DHT22;1292;48.020;7.822;2023-04-03T16:37:25;8.30;99.90
2565;DHT22;1292;48.020;7.822;2023-04-03T16:39:52;8.20;99.90
2565;DHT22;1292;48.020;7.822;2023-04-03T16:42:19;8.20;99.90
2565;DHT22;1292;48.020;7.822;2023-04-03T16:44:46;8.20;99.90
2565;DHT22;1292;48.020;7.822;2023-04-03T16:47:13;8.10;99.90
2565;DHT22;1292;48.020;7.822;2023-04-03T16:49:43;8.10;99.90
2565;DHT22;1292;48.020;7.822;2023-04-03T16:52:09;8.10;99.90
2565;DHT22;1292;48.020;7.822;2023-04-03T16:54:38;8.10;99.90
2565;DHT22;1292;48.020;7.822;2023-04-03T16:57:05;8.00;99.90
2565;DHT22;1292;48.020;7.822;2023-04-03T16:59:32;8.00;99.90
2565;DHT22;1292;48.020;7.822;2023-04-03T17:01:58;8.00;99.90
2565;DHT22;1292;48.020;7.822;2023-04-03T17:04:25;8.10;99.90
2565;DHT22;1292;48.020;7.822;2023-04-03T17:06:52;8.10;99.90
2565;DHT22;1292;48.020;7.822;2023-04-03T17:09:19;8.00;99.90
2565;DHT22;1292;48.020;7.822;2023-04-03T17:11:48;8.00;99.90
2565;DHT22;1292;48.020;7.822;2023-04-03T17:14:14;8.00;99.90
2565;DHT22;1292;48.020;7.822;2023-04-03T17:16:41;7.90;99.90
2565;DHT22;1292;48.020;7.822;2023-04-03T17:19:08;7.90;99.90
2565;DHT22;1292;48.020;7.822;2023-04-03T17:21:37;8.00;99.90
2565;DHT22;1292;48.020;7.822;2023-04-03T17:24:05;7.90;99.90
2565;DHT22;1292;48.020;7.822;2023-04-03T17:26:34;7.90;99.90
2565;DHT22;1292;48.020;7.822;2023-04-03T17:29:03;7.80;99.90
2565;DHT22;1292;48.020;7.822;2023-04-03T17:31:30;7.80;99.90
2565;DHT22;1292;48.020;7.822;2023-04-03T17:33:57;7.70;99.90
2565;DHT22;1292;48.020;7.822;2023-04-03T17:36:26;7.70;99.90
2565;DHT22;1292;48.020;7.822;2023-04-03T17:38:53;7.60;99.90
2565;DHT22;1292;48.020;7.822;2023-04-03T17:41:20;7.60;99.90
2565;DHT22;1292;48.020;7.822;2023-04-03T17:43:47;7.60;99.90
2565;DHT22;1292;48.020;7.822;2023-04-03T17:46:15;7.60;99.90
2565;DHT22;1292;48.020;7.822;2023-04-03T17:48:43;7.60;99.90
2565;DHT22;1292;48.020;7.822;2023-04-03T17:51:12;7.60;99.90
2565;DHT22;1292;48.020;7.822;2023-04-03T17:53:39;7.50;99.90
2565;DHT22;1292;48.020;7.822;2023-04-03T17:56:06;7.50;99.90
2565;DHT22;1292;48.020;7.822;2023-04-03T17:58:34;7.60;99.90
2565;DHT22;1292;48.020;7.822;2023-04-03T18:01:07;7.50;99.90
2565;DHT22;1292;48.020;7.822;2023-04-03T18:03:36;7.50;99.90
2565;DHT22;1292;48.020;7.822;2023-04-03T18:06:04;7.50;99.90
2565;DHT22;1292;48.020;7.822;2023-04-03T18:08:32;7.50;99.90
2565;DHT22;1292;48.020;7.822;2023-04-03T18:10:59;7.50;99.90
2565;DHT22;1292;48.020;7.822;2023-04-03T18:13:26;7.50;99.90
2565;DHT22;1292;48.020;7.822;2023-04-03T18:15:54;7.40;99.90
2565;DHT22;1292;48.020;7.822;2023-04-03T18:18:21;7.40;99.90
2565;DHT22;1292;48.020;7.822;2023-04-03T18:20:49;7.40;99.90
2565;DHT22;1292;48.020;7.822;2023-04-03T18:23:16;7.40;99.90
2565;DHT22;1292;48.020;7.822;2023-04-03T18:25:43;7.40;99.90
2565;DHT22;1292;48.020;7.822;2023-04-03T18:28:11;7.30;99.90
2565;DHT22;1292;48.020;7.822;2023-04-03T18:30:40;7.40;99.90
2565;DHT22;1292;48.020;7.822;2023-04-03T18:33:07;7.40;99.90
2565;DHT22;1292;48.020;7.822;2023-04-03T18:35:34;7.40;99.90
2565;DHT22;1292;48.020;7.822;2023-04-03T18:38:02;7.30;99.90
2565;DHT22;1292;48.020;7.822;2023-04-03T18:40:30;7.30;99.90
2565;DHT22;1292;48.020;7.822;2023-04-03T18:42:59;7.30;99.90
2565;DHT22;1292;48.020;7.822;2023-04-03T18:45:26;7.30;99.90
2565;DHT22;1292;48.020;7.822;2023-04-03T18:47:54;7.30;99.90
2565;DHT22;1292;48.020;7.822;2023-04-03T18:50:21;7.20;99.90
2565;DHT22;1292;48.020;7.822;2023-04-03T18:52:48;7.20;99.90
2565;DHT22;1292;48.020;7.822;2023-04-03T18:55:17;7.20;99.90
2565;DHT22;1292;48.020;7.822;2023-04-03T18:57:45;7.10;99.90
2565;DHT22;1292;48.020;7.822;2023-04-03T19:00:12;7.10;99.90
2565;DHT22;1292;48.020;7.822;2023-04-03T19:02:40;7.10;99.90
2565;DHT22;1292;48.020;7.822;2023-04-03T19:05:08;7.00;99.90
2565;DHT22;1292;48.020;7.822;2023-04-03T19:07:36;7.00;99.90
2565;DHT22;1292;48.020;7.822;2023-04-03T19:10:04;6.90;99.90
2565;DHT22;1292;48.020;7.822;2023-04-03T19:12:32;6.90;99.90
2565;DHT22;1292;48.020;7.822;2023-04-03T19:14:59;6.90;99.90
2565;DHT22;1292;48.020;7.822;2023-04-03T19:17:26;6.90;99.90
2565;DHT22;1292;48.020;7.822;2023-04-03T19:19:53;6.90;99.90
2565;DHT22;1292;48.020;7.822;2023-04-03T19:22:20;6.80;99.90
2565;DHT22;1292;48.020;7.822;2023-04-03T19:24:47;6.80;99.90
2565;DHT22;1292;48.020;7.822;2023-04-03T19:27:14;6.70;99.90
2565;DHT22;1292;48.020;7.822;2023-04-03T19:29:42;6.60;99.90
2565;DHT22;1292;48.020;7.822;2023-04-03T19:32:09;6.50;99.90
2565;DHT22;1292;48.020;7.822;2023-04-03T19:34:36;6.50;99.90
2565;DHT22;1292;48.020;7.822;2023-04-03T19:37:02;6.50;99.90
2565;DHT22;1292;48.020;7.822;2023-04-03T19:39:31;6.40;99.90
2565;DHT22;1292;48.020;7.822;2023-04-03T19:42:00;6.30;99.90
2565;DHT22;1292;48.020;7.822;2023-04-03T19:44:28;6.30;99.90
2565;DHT22;1292;48.020;7.822;2023-04-03T19:46:58;6.20;99.90
2565;DHT22;1292;48.020;7.822;2023-04-03T19:49:25;6.20;99.90
2565;DHT22;1292;48.020;7.822;2023-04-03T19:51:52;6.20;99.90
2565;DHT22;1292;48.020;7.822;2023-04-03T19:54:20;6.20;99.90
2565;DHT22;1292;48.020;7.822;2023-04-03T19:56:47;6.10;99.90
2565;DHT22;1292;48.020;7.822;2023-04-03T19:59:14;6.10;99.90
2565;DHT22;1292;48.020;7.822;2023-04-03T20:01:42;6.10;99.90
2565;DHT22;1292;48.020;7.822;2023-04-03T20:04:12;6.00;99.90
2565;DHT22;1292;48.020;7.822;2023-04-03T20:06:38;5.90;99.90
2565;DHT22;1292;48.020;7.822;2023-04-03T20:09:05;5.90;99.90
2565;DHT22;1292;48.020;7.822;2023-04-03T20:11:33;5.80;99.90
2565;DHT22;1292;48.020;7.822;2023-04-03T20:14:00;5.70;99.90
2565;DHT22;1292;48.020;7.822;2023-04-03T20:16:27;5.60;99.90
2565;DHT22;1292;48.020;7.822;2023-04-03T20:18:54;5.60;99.90
2565;DHT22;1292;48.020;7.822;2023-04-03T20:21:27;5.60;99.90
2565;DHT22;1292;48.020;7.822;2023-04-03T20:23:54;5.60;99.90
2565;DHT22;1292;48.020;7.822;2023-04-03T20:26:23;5.60;99.90
2565;DHT22;1292;48.020;7.822;2023-04-03T20:28:53;5.60;99.90
2565;DHT22;1292;48.020;7.822;2023-04-03T20:31:21;5.50;99.90
2565;DHT22;1292;48.020;7.822;2023-04-03T20:33:48;5.40;99.90
2565;DHT22;1292;48.020;7.822;2023-04-03T20:36:16;5.40;99.90
2565;DHT22;1292;48.020;7.822;2023-04-03T20:38:46;5.40;99.90
2565;DHT22;1292;48.020;7.822;2023-04-03T20:41:13;5.30;99.90
2565;DHT22;1292;48.020;7.822;2023-04-03T20:43:40;5.30;99.90
2565;DHT22;1292;48.020;7.822;2023-04-03T20:46:08;5.20;99.90
2565;DHT22;1292;48.020;7.822;2023-04-03T20:48:35;5.20;99.90
2565;DHT22;1292;48.020;7.822;2023-04-03T20:51:07;5.20;99.90
2565;DHT22;1292;48.020;7.822;2023-04-03T20:53:34;5.10;99.90
2565;DHT22;1292;48.020;7.822;2023-04-03T20:56:03;5.10;99.90
2565;DHT22;1292;48.020;7.822;2023-04-03T20:58:34;5.10;99.90
